Time;durP1;ratioP1;P1;durP2;ratioP2;P2;SDS_P1;SDS_P2;PMS_P1;PMS_P2;Temp;Humidity;BMP_temperature;BMP_pressure;BME280_temperature;BME280_humidity;BME280_pressure;Samples;Min_cycle;Max_cycle;Signal;HPM_P1;HPM_P2
2024/02/01 00:00:59;;;;;;;46.35;29.20;;;;;;;;;;5072756;28;20086;-79
2024/02/01 00:03:25;;;;;;;49.15;29.38;;;;;;;;;;5073522;28;20025;-79
2024/02/01 00:05:51;;;;;;;44.95;29.27;;;;;;;;;;5061044;28;20025;-79
2024/02/01 00:08:17;;;;;;;48.05;27.33;;;;;;;;;;5071449;28;20041;-79
2024/02/01 00:10:44;;;;;;;49.47;30.25;;;;;;;;;;5065181;28;20097;-79
2024/02/01 00:13:10;;;;;;;42.97;26.38;;;;;;;;;;5070851;28;20024;-78
2024/02/01 00:15:36;;;;;;;42.45;25.88;;;;;;;;;;5072377;28;20039;-79
2024/02/01 00:18:02;;;;;;;42.72;27.58;;;;;;;;;;5071083;28;20056;-79
2024/02/01 00:20:28;;;;;;;41.13;26.20;;;;;;;;;;5065665;28;20100;-79
2024/02/01 00:22:54;;;;;;;43.97;26.40;;;;;;;;;;5072344;28;20017;-78
2024/02/01 00:25:20;;;;;;;40.83;25.20;;;;;;;;;;5069273;28;20485;-79
2024/02/01 00:27:46;;;;;;;43.78;25.52;;;;;;;;;;5065000;28;20117;-77
2024/02/01 00:30:13;;;;;;;41.33;25.58;;;;;;;;;;5071773;28;20355;-78
2024/02/01 00:32:39;;;;;;;44.35;26.38;;;;;;;;;;5061199;28;20036;-79
2024/02/01 00:35:05;;;;;;;40.30;25.90;;;;;;;;;;5070941;28;20028;-79
2024/02/01 00:37:32;;;;;;;45.42;26.33;;;;;;;;;;5070866;28;20039;-78
2024/02/01 00:40:00;;;;;;;43.55;26.23;;;;;;;;;;5071575;28;20025;-79
2024/02/01 00:42:26;;;;;;;35.72;23.38;;;;;;;;;;5070682;28;20063;-80
2024/02/01 00:44:52;;;;;;;40.72;25.63;;;;;;;;;;5071529;28;20016;-79
2024/02/01 00:47:18;;;;;;;39.10;24.80;;;;;;;;;;5072133;28;20104;-78
2024/02/01 00:49:44;;;;;;;45.75;25.20;;;;;;;;;;5072213;28;20386;-78
2024/02/01 00:52:10;;;;;;;43.90;25.20;;;;;;;;;;5084502;28;20033;-79
2024/02/01 00:54:37;;;;;;;45.88;25.90;;;;;;;;;;5072816;28;20021;-80
2024/02/01 00:57:04;;;;;;;39.78;24.27;;;;;;;;;;5067991;28;20021;-80
2024/02/01 00:59:30;;;;;;;42.42;25.55;;;;;;;;;;5063077;28;20023;-80
2024/02/01 01:01:56;;;;;;;38.58;24.63;;;;;;;;;;5066681;28;20100;-81
2024/02/01 01:04:22;;;;;;;37.95;24.65;;;;;;;;;;5072305;28;20048;-80
2024/02/01 01:06:48;;;;;;;36.03;23.52;;;;;;;;;;5070917;28;20107;-81
2024/02/01 01:09:14;;;;;;;36.88;25.35;;;;;;;;;;5073066;28;20041;-79
2024/02/01 01:11:40;;;;;;;36.40;21.98;;;;;;;;;;5073709;28;20058;-79
2024/02/01 01:14:07;;;;;;;32.00;21.75;;;;;;;;;;5066948;28;20037;-79
2024/02/01 01:16:33;;;;;;;40.40;24.58;;;;;;;;;;5071819;28;20515;-80
2024/02/01 01:18:59;;;;;;;35.10;22.95;;;;;;;;;;5071465;28;20033;-79
2024/02/01 01:21:25;;;;;;;36.22;24.17;;;;;;;;;;5071817;28;20420;-80
2024/02/01 01:23:51;;;;;;;38.20;24.27;;;;;;;;;;5072262;28;20385;-80
2024/02/01 01:26:22;;;;;;;37.25;23.90;;;;;;;;;;5063894;28;20038;-79
2024/02/01 01:28:48;;;;;;;39.20;24.48;;;;;;;;;;5069051;28;20558;-80
2024/02/01 01:31:14;;;;;;;37.35;25.42;;;;;;;;;;5072706;28;20016;-78
2024/02/01 01:33:40;;;;;;;42.17;27.63;;;;;;;;;;5074266;28;20044;-79
2024/02/01 01:36:06;;;;;;;41.03;26.30;;;;;;;;;;5075428;28;20100;-80
2024/02/01 01:38:32;;;;;;;41.17;25.52;;;;;;;;;;5070197;28;20414;-78
2024/02/01 01:40:58;;;;;;;38.72;23.92;;;;;;;;;;5075413;28;20082;-76
2024/02/01 01:43:25;;;;;;;38.30;24.33;;;;;;;;;;5075348;28;20074;-79
2024/02/01 01:45:57;;;;;;;37.97;25.40;;;;;;;;;;5075294;28;20020;-79
2024/02/01 01:48:23;;;;;;;40.95;26.83;;;;;;;;;;5074537;28;20028;-80
2024/02/01 01:50:49;;;;;;;39.72;25.20;;;;;;;;;;5075680;28;20025;-79
2024/02/01 01:53:15;;;;;;;42.72;26.83;;;;;;;;;;5075350;28;20040;-79
2024/02/01 01:55:41;;;;;;;42.47;25.88;;;;;;;;;;5069762;28;20471;-78
2024/02/01 01:58:07;;;;;;;44.15;27.95;;;;;;;;;;5064408;28;20075;-79
2024/02/01 02:00:34;;;;;;;43.53;27.73;;;;;;;;;;5074778;28;20013;-80
2024/02/01 02:03:00;;;;;;;47.17;28.10;;;;;;;;;;5068478;28;20037;-79
2024/02/01 02:05:27;;;;;;;44.05;25.90;;;;;;;;;;5075495;28;20024;-80
2024/02/01 02:07:53;;;;;;;38.90;24.00;;;;;;;;;;5070029;28;20041;-79
2024/02/01 02:10:19;;;;;;;41.90;25.58;;;;;;;;;;5072406;28;20036;-79
2024/02/01 02:12:45;;;;;;;43.67;25.45;;;;;;;;;;5074530;28;20032;-79
2024/02/01 02:15:12;;;;;;;45.78;26.63;;;;;;;;;;5070825;28;20071;-79
2024/02/01 02:17:38;;;;;;;44.35;27.27;;;;;;;;;;5078493;28;20012;-79
2024/02/01 02:20:16;;;;;;;40.20;24.65;;;;;;;;;;5081548;28;20024;-79
2024/02/01 02:22:42;;;;;;;37.92;23.52;;;;;;;;;;5076318;28;20024;-80
2024/02/01 02:25:09;;;;;;;39.75;24.13;;;;;;;;;;5075680;28;20028;-81
2024/02/01 02:27:36;;;;;;;39.72;24.35;;;;;;;;;;5062917;28;20090;-80
2024/02/01 02:30:02;;;;;;;36.17;23.88;;;;;;;;;;5079067;28;20427;-79
2024/02/01 02:32:28;;;;;;;34.80;22.52;;;;;;;;;;5064012;28;20397;-79
2024/02/01 02:34:54;;;;;;;31.73;20.02;;;;;;;;;;5074678;28;20017;-80
2024/02/01 02:37:20;;;;;;;29.98;17.23;;;;;;;;;;5072472;28;20035;-80
2024/02/01 02:39:46;;;;;;;32.42;19.58;;;;;;;;;;5072605;28;20377;-81
2024/02/01 02:42:12;;;;;;;32.40;20.75;;;;;;;;;;5073008;28;20028;-79
2024/02/01 02:44:39;;;;;;;31.88;19.20;;;;;;;;;;5071018;28;20025;-79
2024/02/01 02:47:05;;;;;;;34.22;18.95;;;;;;;;;;5073114;28;20090;-78
2024/02/01 02:49:32;;;;;;;31.65;19.73;;;;;;;;;;5073920;28;20024;-81
2024/02/01 02:51:59;;;;;;;31.38;19.90;;;;;;;;;;5074215;28;20035;-79
2024/02/01 02:54:25;;;;;;;27.52;18.63;;;;;;;;;;5073117;28;20128;-79
2024/02/01 02:56:51;;;;;;;30.45;19.55;;;;;;;;;;5067963;28;20028;-80
2024/02/01 02:59:17;;;;;;;30.52;19.75;;;;;;;;;;5072800;28;20074;-79
2024/02/01 03:01:44;;;;;;;31.92;19.92;;;;;;;;;;5067924;28;20112;-80
2024/02/01 03:04:11;;;;;;;32.17;20.23;;;;;;;;;;5074270;28;20071;-79
2024/02/01 03:06:37;;;;;;;30.17;17.65;;;;;;;;;;5073980;28;20461;-79
2024/02/01 03:09:03;;;;;;;32.40;20.13;;;;;;;;;;5071394;28;20072;-81
2024/02/01 03:11:29;;;;;;;31.98;19.10;;;;;;;;;;5074047;28;20017;-80
2024/02/01 03:13:55;;;;;;;27.27;19.23;;;;;;;;;;5070335;28;20498;-78
2024/02/01 03:16:22;;;;;;;35.13;21.88;;;;;;;;;;5073586;28;20067;-79
2024/02/01 03:18:49;;;;;;;34.08;20.70;;;;;;;;;;5072319;28;20557;-80
2024/02/01 03:21:16;;;;;;;31.65;20.77;;;;;;;;;;5073433;28;20024;-81
2024/02/01 03:23:43;;;;;;;37.13;21.13;;;;;;;;;;5073677;28;20074;-80
2024/02/01 03:26:10;;;;;;;31.75;20.55;;;;;;;;;;5064132;28;20020;-79
2024/02/01 03:28:36;;;;;;;28.25;19.63;;;;;;;;;;5073065;28;20487;-79
2024/02/01 03:31:03;;;;;;;32.43;20.63;;;;;;;;;;5062514;28;20021;-79
2024/02/01 03:33:30;;;;;;;32.28;19.27;;;;;;;;;;5073092;28;20501;-81
2024/02/01 03:35:57;;;;;;;30.83;19.88;;;;;;;;;;5073193;28;20031;-80
2024/02/01 03:38:25;;;;;;;31.00;17.92;;;;;;;;;;5060542;28;20115;-80
2024/02/01 03:40:52;;;;;;;31.05;20.70;;;;;;;;;;5073176;28;20048;-81
2024/02/01 03:43:18;;;;;;;29.33;19.90;;;;;;;;;;5073025;28;20021;-79
2024/02/01 03:45:50;;;;;;;33.05;20.00;;;;;;;;;;5066916;28;20104;-81
2024/02/01 03:48:20;;;;;;;32.28;19.27;;;;;;;;;;5072653;28;20390;-81
2024/02/01 03:50:46;;;;;;;31.20;20.63;;;;;;;;;;5071878;28;20124;-82
2024/02/01 03:53:12;;;;;;;33.78;20.20;;;;;;;;;;5073193;28;20040;-80
2024/02/01 03:55:40;;;;;;;31.13;18.45;;;;;;;;;;5064485;28;20017;-81
2024/02/01 03:58:06;;;;;;;;;;;;;;;;;;5067419;28;20043;-79
2024/02/01 04:00:33;;;;;;;28.05;17.92;;;;;;;;;;5079775;28;20309;-80
2024/02/01 04:03:03;;;;;;;33.55;19.52;;;;;;;;;;5067968;28;20021;-80
2024/02/01 04:05:36;;;;;;;35.25;20.60;;;;;;;;;;5073868;28;20012;-80
2024/02/01 04:08:06;;;;;;;31.17;20.20;;;;;;;;;;5064129;28;20037;-80
2024/02/01 04:10:33;;;;;;;31.70;19.80;;;;;;;;;;5071981;28;20047;-80
2024/02/01 04:12:59;;;;;;;33.45;20.15;;;;;;;;;;5072290;28;20055;-80
2024/02/01 04:15:26;;;;;;;35.38;19.70;;;;;;;;;;5071501;28;20017;-80
2024/02/01 04:17:52;;;;;;;32.42;20.73;;;;;;;;;;5072911;28;20100;-79
2024/02/01 04:20:18;;;;;;;37.20;20.65;;;;;;;;;;5072373;28;20016;-82
2024/02/01 04:22:46;;;;;;;31.63;20.70;;;;;;;;;;5072361;28;20382;-80
2024/02/01 04:25:12;;;;;;;31.50;19.13;;;;;;;;;;5066691;28;20363;-79
2024/02/01 04:27:38;;;;;;;28.90;20.38;;;;;;;;;;5057724;28;20020;-80
2024/02/01 04:30:06;;;;;;;35.22;19.85;;;;;;;;;;5071625;28;20508;-80
2024/02/01 04:32:33;;;;;;;34.03;20.40;;;;;;;;;;5063118;28;20083;-79
2024/02/01 04:35:03;;;;;;;;;;;;;;;;;;5072737;28;20104;-80
2024/02/01 04:37:30;;;;;;;34.67;18.90;;;;;;;;;;5071625;28;20058;-79
2024/02/01 04:39:56;;;;;;;31.83;17.88;;;;;;;;;;5071853;28;20103;-80
2024/02/01 04:42:23;;;;;;;29.25;18.08;;;;;;;;;;5072561;28;20035;-81
2024/02/01 04:44:50;;;;;;;33.58;19.85;;;;;;;;;;5068569;28;20062;-79
2024/02/01 04:47:17;;;;;;;25.90;17.53;;;;;;;;;;5072248;28;20025;-79
2024/02/01 04:49:43;;;;;;;30.77;18.25;;;;;;;;;;5070844;28;20246;-79
2024/02/01 04:52:10;;;;;;;33.30;19.75;;;;;;;;;;5071846;28;20055;-78
2024/02/01 04:54:37;;;;;;;30.37;18.30;;;;;;;;;;5072093;28;20055;-81
2024/02/01 04:57:03;;;;;;;34.05;20.52;;;;;;;;;;5059601;28;20024;-80
2024/02/01 04:59:32;;;;;;;28.25;19.05;;;;;;;;;;5071843;28;20058;-81
2024/02/01 05:02:04;;;;;;;33.38;19.05;;;;;;;;;;5066320;28;20089;-81
2024/02/01 05:04:30;;;;;;;30.48;20.00;;;;;;;;;;5073129;28;20069;-80
2024/02/01 05:06:56;;;;;;;27.70;19.15;;;;;;;;;;5072697;28;20504;-80
2024/02/01 05:09:32;;;;;;;32.65;19.83;;;;;;;;;;5065636;28;20044;-81
2024/02/01 05:11:58;;;;;;;36.10;19.40;;;;;;;;;;5062186;28;20028;-80
2024/02/01 05:14:24;;;;;;;32.78;21.08;;;;;;;;;;5068264;28;20503;-80
2024/02/01 05:16:51;;;;;;;31.88;21.05;;;;;;;;;;5073187;28;20446;-80
2024/02/01 05:19:18;;;;;;;32.67;20.83;;;;;;;;;;5073505;28;20082;-79
2024/02/01 05:21:44;;;;;;;39.35;21.17;;;;;;;;;;5072830;28;20028;-78
2024/02/01 05:24:13;;;;;;;34.42;21.15;;;;;;;;;;5072204;28;20021;-79
2024/02/01 05:26:51;;;;;;;30.23;19.65;;;;;;;;;;5059889;28;20029;-77
2024/02/01 05:29:18;;;;;;;38.03;22.73;;;;;;;;;;5069443;28;20385;-79
2024/02/01 05:31:47;;;;;;;35.83;21.52;;;;;;;;;;5066277;28;20021;-78
2024/02/01 05:34:16;;;;;;;33.92;19.85;;;;;;;;;;5066981;28;20020;-77
2024/02/01 05:36:45;;;;;;;34.40;20.45;;;;;;;;;;5067626;28;20128;-79
2024/02/01 05:39:24;;;;;;;39.88;23.35;;;;;;;;;;5059154;28;20057;-78
2024/02/01 05:41:52;;;;;;;38.15;22.05;;;;;;;;;;5058232;28;20035;-77
2024/02/01 05:44:19;;;;;;;40.75;23.25;;;;;;;;;;5064294;28;20533;-79
2024/02/01 05:46:49;;;;;;;54.60;26.27;;;;;;;;;;5070897;28;20024;-79
2024/02/01 05:49:18;;;;;;;43.67;23.08;;;;;;;;;;5071312;28;20029;-79
2024/02/01 05:51:45;;;;;;;42.67;22.00;;;;;;;;;;5081279;28;20037;-80
2024/02/01 05:54:11;;;;;;;37.55;22.92;;;;;;;;;;5073803;28;20470;-79
2024/02/01 05:56:38;;;;;;;41.70;23.05;;;;;;;;;;5060520;28;20039;-78
2024/02/01 05:59:04;;;;;;;48.20;24.13;;;;;;;;;;5064913;28;20490;-79
2024/02/01 06:01:31;;;;;;;40.60;23.77;;;;;;;;;;5063289;28;20033;-81
2024/02/01 06:03:57;;;;;;;46.67;25.50;;;;;;;;;;5066367;28;20029;-80
2024/02/01 06:06:23;;;;;;;46.63;25.20;;;;;;;;;;5070987;28;20762;-82
2024/02/01 06:08:49;;;;;;;44.45;24.58;;;;;;;;;;5070895;28;20076;-80
2024/02/01 06:11:15;;;;;;;37.47;23.02;;;;;;;;;;5063643;28;20024;-81
2024/02/01 06:13:44;;;;;;;47.00;25.63;;;;;;;;;;5075146;28;20024;-81
2024/02/01 06:16:13;;;;;;;42.88;25.55;;;;;;;;;;5077374;28;20020;-79
2024/02/01 06:18:39;;;;;;;46.25;26.25;;;;;;;;;;5073901;28;20074;-80
2024/02/01 06:21:06;;;;;;;41.45;22.33;;;;;;;;;;5074564;28;20074;-82
2024/02/01 06:23:32;;;;;;;51.28;27.88;;;;;;;;;;5074996;28;20532;-80
2024/02/01 06:25:58;;;;;;;46.80;22.63;;;;;;;;;;5074639;28;20032;-80
2024/02/01 06:28:24;;;;;;;48.38;26.77;;;;;;;;;;5075220;28;20084;-80
2024/02/01 06:30:50;;;;;;;46.80;25.15;;;;;;;;;;5074074;28;20542;-79
2024/02/01 06:33:16;;;;;;;51.10;24.27;;;;;;;;;;5074732;28;20051;-80
2024/02/01 06:35:45;;;;;;;45.83;26.42;;;;;;;;;;5073198;28;20523;-82
2024/02/01 06:38:22;;;;;;;45.88;25.58;;;;;;;;;;5074475;28;20428;-81
2024/02/01 06:41:07;;;;;;;45.45;24.73;;;;;;;;;;5074543;28;20477;-80
2024/02/01 06:44:01;;;;;;;45.65;24.23;;;;;;;;;;5074766;28;20017;-80
2024/02/01 06:46:48;;;;;;;47.80;26.77;;;;;;;;;;5075117;28;20021;-81
2024/02/01 06:49:18;;;;;;;46.88;26.83;;;;;;;;;;5074564;28;20037;-80
2024/02/01 06:51:46;;;;;;;47.65;23.55;;;;;;;;;;5074042;28;20028;-82
2024/02/01 06:54:28;;;;;;;48.92;25.83;;;;;;;;;;5073017;28;20390;-80
2024/02/01 06:57:03;;;;;;;41.20;25.38;;;;;;;;;;5074231;28;20429;-81
2024/02/01 06:59:44;;;;;;;44.05;25.10;;;;;;;;;;5075368;28;20052;-82
2024/02/01 07:02:35;;;;;;;52.22;23.02;;;;;;;;;;5073833;28;20025;-81
2024/02/01 07:05:21;;;;;;;45.50;25.67;;;;;;;;;;5073732;28;20504;-80
2024/02/01 07:07:50;;;;;;;46.70;25.50;;;;;;;;;;5073655;28;20052;-79
2024/02/01 07:10:17;;;;;;;50.97;34.55;;;;;;;;;;5074707;28;20040;-81
2024/02/01 07:13:06;;;;;;;62.28;35.78;;;;;;;;;;5075922;28;20174;-80
2024/02/01 07:15:32;;;;;;;40.50;22.23;;;;;;;;;;5074556;28;20017;-80
2024/02/01 07:18:05;;;;;;;51.58;27.52;;;;;;;;;;5072834;28;20115;-82
2024/02/01 07:20:35;;;;;;;52.30;28.50;;;;;;;;;;5072506;28;20017;-80
2024/02/01 07:25:48;;;;;;;61.55;34.10;;;;;;;;;;5073612;28;20029;-79
2024/02/01 07:58:25;;;;;;;44.53;25.48;;;;;;;;;;5073079;28;20089;-80
2024/02/01 08:00:53;;;;;;;42.53;22.92;;;;;;;;;;5073221;28;20076;-82
2024/02/01 08:03:42;;;;;;;46.70;22.77;;;;;;;;;;5059414;28;20083;-81
2024/02/01 08:08:54;;;;;;;52.20;26.95;;;;;;;;;;5072694;28;20124;-82
2024/02/01 08:11:20;;;;;;;31.00;18.63;;;;;;;;;;5071726;28;20043;-80
2024/02/01 08:13:50;;;;;;;48.58;26.60;;;;;;;;;;5074227;28;20401;-81
2024/02/01 08:16:17;;;;;;;42.17;26.90;;;;;;;;;;5072254;28;20055;-81
2024/02/01 08:18:43;;;;;;;50.53;26.33;;;;;;;;;;5072924;28;20067;-83
2024/02/01 08:21:16;;;;;;;49.67;31.52;;;;;;;;;;5072638;28;20040;-80
2024/02/01 08:23:43;;;;;;;41.85;23.77;;;;;;;;;;5072986;28;20016;-81
2024/02/01 08:26:10;;;;;;;46.75;25.73;;;;;;;;;;5072227;28;20021;-80
2024/02/01 08:28:36;;;;;;;49.08;23.45;;;;;;;;;;5072598;28;20021;-80
2024/02/01 08:31:08;;;;;;;46.15;23.45;;;;;;;;;;5072237;28;20021;-81
2024/02/01 08:33:34;;;;;;;40.10;20.65;;;;;;;;;;5070544;28;20071;-79
2024/02/01 08:36:00;;;;;;;44.22;22.95;;;;;;;;;;5070930;28;20020;-80
2024/02/01 08:38:26;;;;;;;38.83;23.33;;;;;;;;;;5072676;28;20027;-82
2024/02/01 08:40:53;;;;;;;44.20;23.42;;;;;;;;;;5072067;28;20063;-81
2024/02/01 08:43:19;;;;;;;41.97;22.15;;;;;;;;;;5073580;28;20020;-81
2024/02/01 08:45:45;;;;;;;52.03;26.65;;;;;;;;;;5074096;28;20044;-81
2024/02/01 08:48:11;;;;;;;36.08;19.27;;;;;;;;;;5074178;28;20101;-82
2024/02/01 08:50:46;;;;;;;35.00;20.38;;;;;;;;;;5073079;28;20358;-82
2024/02/01 08:53:13;;;;;;;37.15;24.33;;;;;;;;;;5072046;28;20075;-82
2024/02/01 08:55:39;;;;;;;36.45;20.75;;;;;;;;;;5071222;28;20013;-81
2024/02/01 08:58:08;;;;;;;35.58;20.60;;;;;;;;;;5070864;28;20038;-81
2024/02/01 09:00:36;;;;;;;35.78;22.27;;;;;;;;;;5072229;28;20050;-80
2024/02/01 09:03:03;;;;;;;33.55;20.27;;;;;;;;;;5070743;28;20028;-82
2024/02/01 09:05:32;;;;;;;33.95;20.33;;;;;;;;;;5071992;28;20417;-82
2024/02/01 09:08:00;;;;;;;33.22;19.65;;;;;;;;;;5071444;28;20057;-82
2024/02/01 09:10:30;;;;;;;32.50;20.45;;;;;;;;;;5071976;28;20047;-82
2024/02/01 09:12:56;;;;;;;42.10;23.00;;;;;;;;;;5071507;28;20072;-82
2024/02/01 09:15:22;;;;;;;42.95;21.23;;;;;;;;;;5070276;28;20119;-80
2024/02/01 09:17:48;;;;;;;31.80;21.17;;;;;;;;;;5071863;28;20027;-81
2024/02/01 09:20:18;;;;;;;40.90;21.17;;;;;;;;;;5072025;28;20078;-79
2024/02/01 09:22:46;;;;;;;37.78;21.00;;;;;;;;;;5054367;28;20510;-81
2024/02/01 09:25:12;;;;;;;35.22;22.52;;;;;;;;;;5072615;28;20021;-81
2024/02/01 09:27:39;;;;;;;38.60;22.83;;;;;;;;;;5071774;28;20493;-81
2024/02/01 09:30:06;;;;;;;45.33;23.08;;;;;;;;;;5071806;28;20036;-81
2024/02/01 09:32:33;;;;;;;47.10;22.48;;;;;;;;;;5071537;28;20036;-80
2024/02/01 09:34:59;;;;;;;38.20;22.35;;;;;;;;;;5071922;28;20019;-79
2024/02/01 09:37:25;;;;;;;38.17;19.73;;;;;;;;;;5070620;28;20489;-81
2024/02/01 09:39:51;;;;;;;44.45;24.52;;;;;;;;;;5067283;28;20049;-81
2024/02/01 09:42:18;;;;;;;39.40;23.27;;;;;;;;;;5063915;28;20049;-80
2024/02/01 09:44:44;;;;;;;40.38;21.85;;;;;;;;;;5072705;28;20086;-79
2024/02/01 09:47:12;;;;;;;43.42;22.73;;;;;;;;;;5075376;28;20012;-81
2024/02/01 09:49:38;;;;;;;;;;;;;;;;;;5075754;28;20099;-81
2024/02/01 09:52:09;;;;;;;33.08;16.92;;;;;;;;;;5075689;28;20105;-80
2024/02/01 09:54:36;;;;;;;43.80;21.52;;;;;;;;;;5074202;28;20025;-81
2024/02/01 09:57:14;;;;;;;36.08;19.88;;;;;;;;;;5074903;28;20020;-80
2024/02/01 09:59:40;;;;;;;34.53;22.20;;;;;;;;;;5077470;28;20377;-80
2024/02/01 10:02:10;;;;;;;39.15;23.67;;;;;;;;;;5076927;28;20035;-81
2024/02/01 10:04:36;;;;;;;36.58;21.27;;;;;;;;;;5073166;28;20036;-80
2024/02/01 10:07:03;;;;;;;31.00;20.38;;;;;;;;;;5073681;28;20044;-82
2024/02/01 10:09:29;;;;;;;40.17;22.42;;;;;;;;;;5074915;28;20039;-81
2024/02/01 10:11:55;;;;;;;39.35;22.50;;;;;;;;;;5074492;28;20494;-80
2024/02/01 10:14:34;;;;;;;36.88;21.23;;;;;;;;;;5073816;28;20020;-79
2024/02/01 10:17:06;;;;;;;39.88;20.48;;;;;;;;;;5075940;28;20097;-80
2024/02/01 10:19:35;;;;;;;38.33;19.88;;;;;;;;;;5078471;28;20139;-81
2024/02/01 10:22:10;;;;;;;37.47;22.58;;;;;;;;;;5075048;28;20464;-78
2024/02/01 10:24:49;;;;;;;43.00;22.95;;;;;;;;;;5073605;28;20031;-83
2024/02/01 10:27:19;;;;;;;43.53;31.55;;;;;;;;;;5074041;28;20033;-81
2024/02/01 10:29:49;;;;;;;40.28;22.52;;;;;;;;;;5075095;28;20020;-80
2024/02/01 10:32:16;;;;;;;37.83;21.02;;;;;;;;;;5074612;28;20032;-81
2024/02/01 10:34:45;;;;;;;35.58;20.40;;;;;;;;;;5073055;28;20042;-79
2024/02/01 10:37:13;;;;;;;49.95;23.90;;;;;;;;;;5074576;28;20495;-79
2024/02/01 10:39:44;;;;;;;38.63;21.05;;;;;;;;;;5074465;28;20024;-80
2024/02/01 10:42:13;;;;;;;38.20;20.77;;;;;;;;;;5073092;28;20096;-81
2024/02/01 10:44:41;;;;;;;49.03;25.52;;;;;;;;;;5074210;28;20061;-82
2024/02/01 10:47:15;;;;;;;31.13;16.73;;;;;;;;;;5074579;28;20032;-80
2024/02/01 10:49:44;;;;;;;54.25;47.95;;;;;;;;;;5072704;28;20379;-82
2024/02/01 10:52:12;;;;;;;37.33;22.42;;;;;;;;;;5074405;28;20031;-79
2024/02/01 10:54:38;;;;;;;;;;;;;;;;;;5074711;28;20112;-80
2024/02/01 10:57:10;;;;;;;29.45;18.38;;;;;;;;;;5072772;28;19908;-82
2024/02/01 10:59:38;;;;;;;31.63;18.88;;;;;;;;;;5074137;28;20495;-80
2024/02/01 11:02:06;;;;;;;29.40;18.13;;;;;;;;;;5073983;28;20043;-81
2024/02/01 11:04:35;;;;;;;38.33;21.40;;;;;;;;;;5074371;28;20024;-81
2024/02/01 11:07:01;;;;;;;39.53;20.95;;;;;;;;;;5074081;28;20028;-81
2024/02/01 11:09:29;;;;;;;33.67;19.13;;;;;;;;;;5074651;28;20040;-79
2024/02/01 11:11:56;;;;;;;36.53;22.73;;;;;;;;;;5074462;28;20024;-82
2024/02/01 11:14:23;;;;;;;43.65;37.10;;;;;;;;;;5073820;28;20039;-81
2024/02/01 11:16:50;;;;;;;;;;;;;;;;;;5074283;28;20129;-80
2024/02/01 11:19:22;;;;;;;30.90;19.20;;;;;;;;;;5074079;28;19947;-82
2024/02/01 11:21:54;;;;;;;31.13;18.92;;;;;;;;;;5073758;28;20266;-81
2024/02/01 11:24:21;;;;;;;34.15;19.52;;;;;;;;;;5073739;28;20043;-81
2024/02/01 11:26:54;;;;;;;23.58;15.13;;;;;;;;;;5074527;28;20023;-81
2024/02/01 11:29:24;;;;;;;38.42;25.98;;;;;;;;;;5074813;28;20381;-81
2024/02/01 11:32:00;;;;;;;35.33;21.70;;;;;;;;;;5073564;28;20032;-81
2024/02/01 11:34:27;;;;;;;33.25;18.00;;;;;;;;;;5073497;28;20021;-81
2024/02/01 11:36:56;;;;;;;29.75;16.67;;;;;;;;;;5073887;28;20481;-81
2024/02/01 11:39:22;;;;;;;31.73;18.67;;;;;;;;;;5073691;28;20035;-81
2024/02/01 11:41:49;;;;;;;23.25;15.52;;;;;;;;;;5073839;28;20017;-81
2024/02/01 11:44:16;;;;;;;24.02;16.13;;;;;;;;;;5073777;28;20025;-81
2024/02/01 11:46:45;;;;;;;32.63;25.90;;;;;;;;;;5074495;28;20075;-81
2024/02/01 11:49:19;;;;;;;32.35;19.35;;;;;;;;;;5073582;28;20025;-80
2024/02/01 11:52:15;;;;;;;37.15;21.25;;;;;;;;;;5073935;28;20046;-79
2024/02/01 11:54:49;;;;;;;29.15;18.10;;;;;;;;;;5073228;28;20109;-79
2024/02/01 11:57:20;;;;;;;40.03;21.48;;;;;;;;;;5073139;28;20017;-81
2024/02/01 11:59:46;;;;;;;23.42;15.35;;;;;;;;;;5071625;28;20050;-81
2024/02/01 12:02:13;;;;;;;25.60;17.88;;;;;;;;;;5073148;28;20013;-79
2024/02/01 12:04:41;;;;;;;37.30;18.83;;;;;;;;;;5073486;28;20056;-79
2024/02/01 12:07:08;;;;;;;29.35;17.00;;;;;;;;;;5073333;28;20024;-81
2024/02/01 12:09:34;;;;;;;;;;;;;;;;;;5072760;28;20028;-79
2024/02/01 12:12:00;;;;;;;28.80;15.48;;;;;;;;;;5072537;28;20238;-82
2024/02/01 12:14:27;;;;;;;26.50;14.30;;;;;;;;;;5073020;28;20463;-82
2024/02/01 12:16:56;;;;;;;32.00;16.55;;;;;;;;;;5072351;28;20102;-80
2024/02/01 12:19:27;;;;;;;45.28;39.58;;;;;;;;;;5072840;28;20021;-81
2024/02/01 12:21:54;;;;;;;33.20;19.52;;;;;;;;;;5071159;28;20454;-81
2024/02/01 12:24:32;;;;;;;26.20;16.25;;;;;;;;;;5072653;28;20063;-82
2024/02/01 12:26:58;;;;;;;25.33;15.85;;;;;;;;;;5071681;28;20024;-81
2024/02/01 12:29:27;;;;;;;32.33;27.75;;;;;;;;;;5073523;28;20029;-80
2024/02/01 12:31:53;;;;;;;25.05;15.05;;;;;;;;;;5073816;28;20098;-80
2024/02/01 12:34:19;;;;;;;17.15;11.48;;;;;;;;;;5072513;28;20033;-82
2024/02/01 12:36:48;;;;;;;24.35;16.38;;;;;;;;;;5071041;28;20017;-80
2024/02/01 12:39:14;;;;;;;28.55;25.20;;;;;;;;;;5072452;28;20068;-83
2024/02/01 12:41:40;;;;;;;45.28;36.58;;;;;;;;;;5072199;28;20020;-83
2024/02/01 12:44:07;;;;;;;37.38;33.63;;;;;;;;;;5071261;28;20016;-81
2024/02/01 12:46:33;;;;;;;22.92;15.13;;;;;;;;;;5072217;28;20020;-82
2024/02/01 12:49:02;;;;;;;19.55;11.68;;;;;;;;;;5072128;28;20096;-80
2024/02/01 12:51:28;;;;;;;29.05;20.05;;;;;;;;;;5071824;28;20089;-79
2024/02/01 12:53:55;;;;;;;36.92;22.15;;;;;;;;;;5072120;28;20040;-81
2024/02/01 12:56:25;;;;;;;23.60;16.90;;;;;;;;;;5072511;28;20070;-80
2024/02/01 12:58:52;;;;;;;28.60;15.90;;;;;;;;;;5073804;28;20020;-78
2024/02/01 13:01:18;;;;;;;24.10;14.30;;;;;;;;;;5072842;28;20031;-80
2024/02/01 13:03:45;;;;;;;24.27;13.93;;;;;;;;;;5071969;28;20048;-80
2024/02/01 13:06:11;;;;;;;;;;;;;;;;;;5072470;28;20033;-80
2024/02/01 13:08:40;;;;;;;21.60;14.05;;;;;;;;;;5071795;28;19970;-81
2024/02/01 13:11:10;;;;;;;25.27;13.68;;;;;;;;;;5071926;28;20041;-78
2024/02/01 13:13:39;;;;;;;24.38;13.95;;;;;;;;;;5071634;28;20064;-81
2024/02/01 13:16:07;;;;;;;23.42;13.07;;;;;;;;;;5071981;28;20020;-81
2024/02/01 13:18:33;;;;;;;24.00;13.30;;;;;;;;;;5072028;28;20032;-81
2024/02/01 13:20:59;;;;;;;27.25;14.07;;;;;;;;;;5074383;28;20048;-79
2024/02/01 13:23:25;;;;;;;24.95;13.90;;;;;;;;;;5077194;28;20024;-82
2024/02/01 13:25:51;;;;;;;23.63;12.55;;;;;;;;;;5078295;28;20425;-81
2024/02/01 13:28:18;;;;;;;26.88;14.23;;;;;;;;;;5078818;28;20492;-81
2024/02/01 13:30:44;;;;;;;27.80;15.60;;;;;;;;;;5076519;28;20028;-80
2024/02/01 13:33:10;;;;;;;23.50;13.33;;;;;;;;;;5077741;28;20028;-81
2024/02/01 13:35:38;;;;;;;19.70;13.07;;;;;;;;;;5076059;28;20503;-81
2024/02/01 13:38:10;;;;;;;;;;;;;;;;;;5076302;28;20031;-79
2024/02/01 13:40:37;;;;;;;22.85;11.77;;;;;;;;;;5074257;28;19916;-79
2024/02/01 13:43:03;;;;;;;21.63;14.37;;;;;;;;;;5075351;28;20033;-80
2024/02/01 13:45:30;;;;;;;23.23;14.18;;;;;;;;;;5075681;28;20021;-80
2024/02/01 13:47:56;;;;;;;24.60;14.77;;;;;;;;;;5075053;28;20033;-82
2024/02/01 13:50:23;;;;;;;23.05;15.05;;;;;;;;;;5075206;28;20428;-81
2024/02/01 13:52:57;;;;;;;28.00;15.85;;;;;;;;;;5075441;28;20039;-80
2024/02/01 13:55:26;;;;;;;22.98;13.65;;;;;;;;;;5061863;28;20068;-80
2024/02/01 13:57:53;;;;;;;23.40;15.15;;;;;;;;;;5075292;28;20373;-80
2024/02/01 14:00:19;;;;;;;23.33;14.02;;;;;;;;;;5074004;28;20023;-81
2024/02/01 14:02:46;;;;;;;28.70;15.70;;;;;;;;;;5075410;28;20354;-80
2024/02/01 14:05:13;;;;;;;22.75;13.00;;;;;;;;;;5075406;28;20044;-79
2024/02/01 14:07:39;;;;;;;26.05;15.07;;;;;;;;;;5074847;28;20048;-81
2024/02/01 14:10:07;;;;;;;23.55;14.10;;;;;;;;;;5074775;28;20060;-78
2024/02/01 14:12:34;;;;;;;28.17;16.25;;;;;;;;;;5075009;28;20036;-81
2024/02/01 14:15:01;;;;;;;23.90;14.77;;;;;;;;;;5074846;28;20051;-80
2024/02/01 14:17:27;;;;;;;23.08;16.33;;;;;;;;;;5060291;28;20024;-80
2024/02/01 14:19:53;;;;;;;30.92;17.42;;;;;;;;;;5073875;28;20489;-79
2024/02/01 14:22:20;;;;;;;30.10;16.98;;;;;;;;;;5074454;28;20035;-82
2024/02/01 14:24:49;;;;;;;35.63;18.40;;;;;;;;;;5074638;28;20016;-80
2024/02/01 14:27:15;;;;;;;27.63;17.52;;;;;;;;;;5074519;28;20028;-81
2024/02/01 14:29:41;;;;;;;32.53;18.80;;;;;;;;;;5074468;28;20013;-81
2024/02/01 14:32:08;;;;;;;34.08;19.40;;;;;;;;;;5074163;28;20028;-80
2024/02/01 14:34:34;;;;;;;28.35;16.77;;;;;;;;;;5074411;28;20354;-79
2024/02/01 14:37:00;;;;;;;38.13;19.35;;;;;;;;;;5075117;28;20051;-82
2024/02/01 14:39:28;;;;;;;28.77;16.98;;;;;;;;;;5074500;28;20029;-81
2024/02/01 14:41:57;;;;;;;32.80;19.02;;;;;;;;;;5074544;28;20538;-80
2024/02/01 14:44:23;;;;;;;33.47;17.45;;;;;;;;;;5075913;28;20074;-81
2024/02/01 14:46:49;;;;;;;27.10;18.65;;;;;;;;;;5076291;28;20059;-82
2024/02/01 14:49:15;;;;;;;27.77;17.23;;;;;;;;;;5073352;28;20044;-81
2024/02/01 14:51:41;;;;;;;28.92;17.30;;;;;;;;;;5074792;28;20021;-81
2024/02/01 14:54:08;;;;;;;27.08;16.60;;;;;;;;;;5073094;28;20071;-81
2024/02/01 14:56:34;;;;;;;22.73;15.50;;;;;;;;;;5073895;28;20028;-80
2024/02/01 14:59:01;;;;;;;22.60;15.63;;;;;;;;;;5075478;28;20032;-80
2024/02/01 15:01:28;;;;;;;21.33;13.07;;;;;;;;;;5073224;28;20473;-79